EWG4LD LOWW-EDDK
Flight info
| Callsign | EWG4LD |
|---|---|
| Flight time | 1h 11m |
| Altitude | 36000 |
| Route | BUWUT DCT DITIS DCT RAPET T843 VELIS DCT MASEK T841 ERNEP ERNEP1C |
| Aircraft | A320/M-SDE3FGHIJ1LORVWXYZ/LB1 |
Departure
| Time | 2026-04-25 11:26 |
|---|---|
| Airport | Vienna International Airport (LOWW) |
Arrival
| Time | 2026-04-25 12:38 |
|---|---|
| Airport | Cologne Bonn Airport (EDDK) |
| Time | Latitude | Longitude | Altitude | Speed | Heading |
|---|---|---|---|---|---|
| 2026-04-25 10:33 | 48.12087 | 16.55661 | 616 ft | 0 kts | 116° |
| 2026-04-25 11:15 | 48.12093 | 16.55644 | 622 ft | 4 kts | 120° |
| 2026-04-25 11:15 | 48.12109 | 16.55612 | 618 ft | 4 kts | 141° |
| 2026-04-25 11:16 | 48.12142 | 16.55602 | 619 ft | 1 kts | 206° |
| 2026-04-25 11:16 | 48.12143 | 16.55603 | 619 ft | 0 kts | 206° |
| 2026-04-25 11:19 | 48.12136 | 16.55597 | 618 ft | 5 kts | 206° |
| 2026-04-25 11:19 | 48.12072 | 16.55551 | 610 ft | 12 kts | 206° |
| 2026-04-25 11:20 | 48.12017 | 16.55512 | 613 ft | 9 kts | 205° |
| 2026-04-25 11:20 | 48.11960 | 16.55471 | 610 ft | 8 kts | 205° |
| 2026-04-25 11:20 | 48.11911 | 16.55438 | 614 ft | 8 kts | 198° |
| 2026-04-25 11:20 | 48.11845 | 16.55433 | 621 ft | 13 kts | 175° |
| 2026-04-25 11:21 | 48.11783 | 16.55539 | 621 ft | 14 kts | 116° |
| 2026-04-25 11:21 | 48.11741 | 16.55658 | 625 ft | 12 kts | 118° |
| 2026-04-25 11:21 | 48.11702 | 16.55765 | 621 ft | 11 kts | 118° |
| 2026-04-25 11:21 | 48.11668 | 16.55862 | 621 ft | 10 kts | 115° |
| 2026-04-25 11:22 | 48.11641 | 16.55947 | 623 ft | 8 kts | 115° |
| 2026-04-25 11:22 | 48.11625 | 16.55998 | 615 ft | 8 kts | 115° |
| 2026-04-25 11:22 | 48.11559 | 16.56202 | 616 ft | 18 kts | 116° |
| 2026-04-25 11:22 | 48.11506 | 16.56366 | 616 ft | 17 kts | 116° |
| 2026-04-25 11:23 | 48.11457 | 16.56516 | 612 ft | 15 kts | 116° |
| 2026-04-25 11:23 | 48.11413 | 16.56654 | 623 ft | 14 kts | 116° |
| 2026-04-25 11:23 | 48.11372 | 16.56780 | 611 ft | 13 kts | 116° |
| 2026-04-25 11:23 | 48.11335 | 16.56893 | 626 ft | 11 kts | 116° |
| 2026-04-25 11:24 | 48.11295 | 16.57014 | 619 ft | 16 kts | 116° |
| 2026-04-25 11:24 | 48.11249 | 16.57157 | 619 ft | 15 kts | 116° |
| 2026-04-25 11:24 | 48.11180 | 16.57230 | 610 ft | 12 kts | 189° |
| 2026-04-25 11:24 | 48.11116 | 16.57190 | 616 ft | 9 kts | 204° |
| 2026-04-25 11:25 | 48.11066 | 16.57151 | 620 ft | 7 kts | 210° |
| 2026-04-25 11:25 | 48.11058 | 16.57095 | 612 ft | 6 kts | 292° |
| 2026-04-25 11:25 | 48.11066 | 16.57071 | 618 ft | 0 kts | 296° |
| 2026-04-25 11:25 | 48.11068 | 16.57067 | 610 ft | 9 kts | 296° |
| 2026-04-25 11:26 | 48.11216 | 16.56616 | 619 ft | 83 kts | 296° |
| 2026-04-25 11:26 | 48.11543 | 16.55615 | 622 ft | 137 kts | 296° |
| 2026-04-25 11:26 | 48.12026 | 16.54169 | 800 ft | 167 kts | 297° |
| 2026-04-25 11:26 | 48.12203 | 16.52407 | 1311 ft | 182 kts | 254° |
| 2026-04-25 11:27 | 48.11452 | 16.50876 | 2122 ft | 186 kts | 224° |
| 2026-04-25 11:27 | 48.10428 | 16.49719 | 2865 ft | 184 kts | 219° |
| 2026-04-25 11:27 | 48.09378 | 16.48652 | 3617 ft | 181 kts | 220° |
| 2026-04-25 11:27 | 48.08685 | 16.47942 | 4017 ft | 185 kts | 220° |
| 2026-04-25 11:28 | 48.07426 | 16.46001 | 4420 ft | 208 kts | 246° |
| 2026-04-25 11:28 | 48.06767 | 16.44016 | 4848 ft | 231 kts | 248° |
| 2026-04-25 11:28 | 48.06054 | 16.41730 | 5350 ft | 252 kts | 249° |
| 2026-04-25 11:28 | 48.05317 | 16.39312 | 6162 ft | 259 kts | 249° |
| 2026-04-25 11:29 | 48.04570 | 16.36839 | 7036 ft | 263 kts | 249° |
| 2026-04-25 11:29 | 48.03844 | 16.34412 | 7842 ft | 268 kts | 251° |
| 2026-04-25 11:29 | 48.03377 | 16.31727 | 8680 ft | 268 kts | 269° |
| 2026-04-25 11:29 | 48.03408 | 16.29043 | 9465 ft | 272 kts | 276° |
| 2026-04-25 11:30 | 48.03537 | 16.26199 | 10250 ft | 278 kts | 277° |
| 2026-04-25 11:30 | 48.03700 | 16.23215 | 10600 ft | 299 kts | 281° |
| 2026-04-25 11:30 | 48.04216 | 16.20156 | 10940 ft | 315 kts | 292° |
| 2026-04-25 11:30 | 48.05172 | 16.17159 | 11528 ft | 324 kts | 299° |
| 2026-04-25 11:31 | 48.06253 | 16.14119 | 12251 ft | 330 kts | 298° |
| 2026-04-25 11:31 | 48.07315 | 16.11112 | 13028 ft | 331 kts | 298° |
| 2026-04-25 11:31 | 48.08211 | 16.08564 | 13758 ft | 332 kts | 298° |
| 2026-04-25 11:31 | 48.09276 | 16.05527 | 14397 ft | 336 kts | 298° |
| 2026-04-25 11:32 | 48.10370 | 16.02410 | 15048 ft | 340 kts | 297° |
| 2026-04-25 11:32 | 48.11473 | 15.99271 | 15729 ft | 342 kts | 298° |
| 2026-04-25 11:32 | 48.12836 | 15.96342 | 16382 ft | 345 kts | 310° |
| 2026-04-25 11:32 | 48.14622 | 15.93928 | 17112 ft | 349 kts | 322° |
| 2026-04-25 11:33 | 48.16762 | 15.92139 | 17697 ft | 358 kts | 334° |
| 2026-04-25 11:33 | 48.19064 | 15.90770 | 18275 ft | 362 kts | 334° |
| 2026-04-25 11:33 | 48.21418 | 15.89364 | 18823 ft | 366 kts | 335° |
| 2026-04-25 11:33 | 48.23793 | 15.87933 | 19343 ft | 369 kts | 334° |
| 2026-04-25 11:34 | 48.26104 | 15.86536 | 19874 ft | 372 kts | 334° |
| 2026-04-25 11:34 | 48.28510 | 15.85077 | 20397 ft | 375 kts | 334° |
| 2026-04-25 11:34 | 48.30928 | 15.83610 | 20920 ft | 378 kts | 334° |
| 2026-04-25 11:34 | 48.33378 | 15.82125 | 21429 ft | 381 kts | 334° |
| 2026-04-25 11:35 | 48.35844 | 15.80634 | 21939 ft | 384 kts | 334° |
| 2026-04-25 11:35 | 48.38330 | 15.79129 | 22436 ft | 387 kts | 334° |
| 2026-04-25 11:35 | 48.40831 | 15.77612 | 22919 ft | 390 kts | 334° |
| 2026-04-25 11:35 | 48.43354 | 15.76079 | 23401 ft | 392 kts | 334° |
| 2026-04-25 11:36 | 48.45811 | 15.74582 | 23860 ft | 394 kts | 333° |
| 2026-04-25 11:36 | 48.48358 | 15.73029 | 24301 ft | 396 kts | 333° |
| 2026-04-25 11:36 | 48.50916 | 15.71468 | 24690 ft | 398 kts | 333° |
| 2026-04-25 11:36 | 48.53494 | 15.69895 | 25080 ft | 401 kts | 333° |
| 2026-04-25 11:37 | 48.56092 | 15.68308 | 25472 ft | 404 kts | 333° |
| 2026-04-25 11:37 | 48.58700 | 15.66713 | 25856 ft | 406 kts | 333° |
| 2026-04-25 11:37 | 48.61245 | 15.65154 | 26220 ft | 408 kts | 333° |
| 2026-04-25 11:37 | 48.63885 | 15.63534 | 26599 ft | 411 kts | 333° |
| 2026-04-25 11:38 | 48.66484 | 15.61796 | 26967 ft | 409 kts | 327° |
| 2026-04-25 11:38 | 48.68852 | 15.59437 | 27350 ft | 406 kts | 316° |
| 2026-04-25 11:38 | 48.70869 | 15.56505 | 27775 ft | 401 kts | 307° |
| 2026-04-25 11:38 | 48.72507 | 15.53112 | 28167 ft | 399 kts | 298° |
| 2026-04-25 11:39 | 48.73867 | 15.49440 | 28546 ft | 400 kts | 296° |
| 2026-04-25 11:39 | 48.75221 | 15.45749 | 28899 ft | 402 kts | 296° |
| 2026-04-25 11:39 | 48.76578 | 15.42048 | 29224 ft | 404 kts | 296° |
| 2026-04-25 11:39 | 48.77884 | 15.38483 | 29509 ft | 406 kts | 296° |
| 2026-04-25 11:40 | 48.78646 | 15.36400 | 29683 ft | 407 kts | 296° |
| 2026-04-25 11:40 | 48.80514 | 15.31376 | 30097 ft | 411 kts | 299° |
| 2026-04-25 11:40 | 48.82160 | 15.27808 | 30362 ft | 414 kts | 302° |
| 2026-04-25 11:40 | 48.83812 | 15.24322 | 30623 ft | 416 kts | 302° |
| 2026-04-25 11:41 | 48.85505 | 15.20745 | 30905 ft | 417 kts | 302° |
| 2026-04-25 11:41 | 48.87191 | 15.17180 | 31283 ft | 415 kts | 302° |
| 2026-04-25 11:41 | 48.88803 | 15.13765 | 31648 ft | 414 kts | 302° |
| 2026-04-25 11:41 | 48.90427 | 15.10324 | 32013 ft | 413 kts | 302° |
| 2026-04-25 11:42 | 48.92125 | 15.06799 | 32384 ft | 412 kts | 303° |
| 2026-04-25 11:42 | 48.93837 | 15.03305 | 32732 ft | 412 kts | 303° |
| 2026-04-25 11:42 | 48.95558 | 14.99818 | 33083 ft | 412 kts | 303° |
| 2026-04-25 11:42 | 48.97219 | 14.96451 | 33439 ft | 411 kts | 303° |
| 2026-04-25 11:43 | 48.98882 | 14.93057 | 33799 ft | 410 kts | 303° |
| 2026-04-25 11:43 | 49.00368 | 14.90013 | 34132 ft | 409 kts | 303° |
| 2026-04-25 11:43 | 49.01997 | 14.86667 | 34469 ft | 407 kts | 303° |
| 2026-04-25 11:43 | 49.03593 | 14.83377 | 34798 ft | 406 kts | 303° |
| 2026-04-25 11:44 | 49.05293 | 14.79862 | 35114 ft | 405 kts | 303° |
| 2026-04-25 11:44 | 49.06962 | 14.76407 | 35402 ft | 404 kts | 303° |
| 2026-04-25 11:44 | 49.08626 | 14.72957 | 35675 ft | 404 kts | 303° |
| 2026-04-25 11:44 | 49.10291 | 14.69505 | 35915 ft | 404 kts | 303° |
| 2026-04-25 11:45 | 49.11756 | 14.66460 | 36030 ft | 405 kts | 303° |
| 2026-04-25 11:45 | 49.13376 | 14.63092 | 36054 ft | 405 kts | 303° |
| 2026-04-25 11:45 | 49.16678 | 14.56223 | 36054 ft | 404 kts | 303° |
| 2026-04-25 11:46 | 49.19877 | 14.49545 | 36053 ft | 404 kts | 303° |
| 2026-04-25 11:46 | 49.22993 | 14.43033 | 36052 ft | 404 kts | 303° |
| 2026-04-25 11:47 | 49.26325 | 14.36063 | 36051 ft | 404 kts | 303° |
| 2026-04-25 11:47 | 49.29635 | 14.29104 | 36036 ft | 405 kts | 303° |
| 2026-04-25 11:48 | 49.32664 | 14.22707 | 36060 ft | 405 kts | 303° |
| 2026-04-25 11:48 | 49.35407 | 14.16906 | 36061 ft | 405 kts | 303° |
| 2026-04-25 11:49 | 49.39230 | 14.08817 | 36057 ft | 405 kts | 303° |
| 2026-04-25 11:49 | 49.42530 | 14.01804 | 36058 ft | 405 kts | 303° |
| 2026-04-25 11:50 | 49.45729 | 13.94992 | 36054 ft | 405 kts | 303° |
| 2026-04-25 11:50 | 49.48910 | 13.88207 | 36056 ft | 406 kts | 303° |
| 2026-04-25 11:51 | 49.52147 | 13.81276 | 36050 ft | 406 kts | 303° |
| 2026-04-25 11:51 | 49.55247 | 13.74626 | 36057 ft | 406 kts | 303° |
| 2026-04-25 11:52 | 49.58492 | 13.67632 | 36066 ft | 406 kts | 303° |
| 2026-04-25 11:52 | 49.61224 | 13.61752 | 36071 ft | 406 kts | 303° |
| 2026-04-25 11:53 | 49.64503 | 13.54674 | 36092 ft | 405 kts | 303° |
| 2026-04-25 11:53 | 49.67512 | 13.48166 | 36096 ft | 405 kts | 302° |
| 2026-04-25 11:54 | 49.70766 | 13.41079 | 36101 ft | 404 kts | 302° |
| 2026-04-25 11:55 | 49.75612 | 13.30488 | 36095 ft | 404 kts | 302° |
| 2026-04-25 11:55 | 49.78765 | 13.23609 | 36090 ft | 404 kts | 302° |
| 2026-04-25 11:56 | 49.82012 | 13.16510 | 36086 ft | 404 kts | 302° |
| 2026-04-25 11:56 | 49.85138 | 13.09630 | 36065 ft | 404 kts | 302° |
| 2026-04-25 11:57 | 49.88250 | 13.02759 | 36062 ft | 404 kts | 302° |
| 2026-04-25 11:57 | 49.91439 | 12.95715 | 36060 ft | 404 kts | 302° |
| 2026-04-25 11:58 | 49.94663 | 12.88570 | 36083 ft | 404 kts | 302° |
| 2026-04-25 11:58 | 49.97817 | 12.81564 | 36078 ft | 403 kts | 302° |
| 2026-04-25 11:59 | 50.01014 | 12.74432 | 36068 ft | 404 kts | 302° |
| 2026-04-25 11:59 | 50.04221 | 12.67264 | 36065 ft | 404 kts | 302° |
| 2026-04-25 12:00 | 50.08957 | 12.56654 | 36063 ft | 404 kts | 302° |
| 2026-04-25 12:01 | 50.13757 | 12.45849 | 36068 ft | 404 kts | 302° |
| 2026-04-25 12:01 | 50.16956 | 12.38624 | 36055 ft | 405 kts | 303° |
| 2026-04-25 12:02 | 50.20128 | 12.27074 | 36055 ft | 403 kts | 283° |
| 2026-04-25 12:02 | 50.21456 | 12.18585 | 36069 ft | 404 kts | 284° |
| 2026-04-25 12:03 | 50.22783 | 12.10192 | 36073 ft | 404 kts | 284° |
| 2026-04-25 12:03 | 50.24110 | 12.01721 | 36068 ft | 405 kts | 284° |
| 2026-04-25 12:04 | 50.25417 | 11.93335 | 36057 ft | 407 kts | 284° |
| 2026-04-25 12:04 | 50.26702 | 11.85067 | 36057 ft | 410 kts | 284° |
| 2026-04-25 12:05 | 50.28026 | 11.76478 | 36064 ft | 411 kts | 284° |
| 2026-04-25 12:05 | 50.29366 | 11.67765 | 36068 ft | 413 kts | 285° |
| 2026-04-25 12:06 | 50.30643 | 11.59417 | 36066 ft | 414 kts | 285° |
| 2026-04-25 12:06 | 50.31963 | 11.50650 | 36057 ft | 415 kts | 285° |
| 2026-04-25 12:07 | 50.33262 | 11.41889 | 36062 ft | 416 kts | 284° |
| 2026-04-25 12:07 | 50.34560 | 11.33035 | 36066 ft | 417 kts | 284° |
| 2026-04-25 12:08 | 50.35850 | 11.24174 | 36076 ft | 417 kts | 284° |
| 2026-04-25 12:08 | 50.37085 | 11.15752 | 36082 ft | 417 kts | 284° |
| 2026-04-25 12:09 | 50.38383 | 11.06890 | 36082 ft | 417 kts | 284° |
| 2026-04-25 12:09 | 50.39668 | 10.98041 | 36091 ft | 417 kts | 284° |
| 2026-04-25 12:10 | 50.40925 | 10.89270 | 36103 ft | 416 kts | 284° |
| 2026-04-25 12:10 | 50.42183 | 10.80480 | 36105 ft | 416 kts | 284° |
| 2026-04-25 12:11 | 50.43389 | 10.71964 | 36110 ft | 416 kts | 284° |
| 2026-04-25 12:11 | 50.44668 | 10.63016 | 36101 ft | 416 kts | 284° |
| 2026-04-25 12:12 | 50.45733 | 10.55669 | 36108 ft | 415 kts | 284° |
| 2026-04-25 12:12 | 50.47500 | 10.45573 | 36111 ft | 413 kts | 295° |
| 2026-04-25 12:13 | 50.49972 | 10.37443 | 36111 ft | 413 kts | 296° |
| 2026-04-25 12:13 | 50.52419 | 10.29287 | 36111 ft | 413 kts | 296° |
| 2026-04-25 12:14 | 50.54732 | 10.21498 | 36107 ft | 413 kts | 296° |
| 2026-04-25 12:14 | 50.57162 | 10.13320 | 36110 ft | 412 kts | 296° |
| 2026-04-25 12:15 | 50.59574 | 10.05213 | 36126 ft | 412 kts | 296° |
| 2026-04-25 12:15 | 50.61976 | 9.97122 | 36113 ft | 412 kts | 296° |
| 2026-04-25 12:16 | 50.64373 | 9.88985 | 36118 ft | 412 kts | 296° |
| 2026-04-25 12:16 | 50.66788 | 9.80792 | 36120 ft | 412 kts | 296° |
| 2026-04-25 12:17 | 50.69169 | 9.72699 | 36121 ft | 412 kts | 296° |
| 2026-04-25 12:17 | 50.71561 | 9.64501 | 36124 ft | 412 kts | 296° |
| 2026-04-25 12:18 | 50.73897 | 9.56580 | 36123 ft | 412 kts | 297° |
| 2026-04-25 12:18 | 50.76482 | 9.48462 | 36117 ft | 412 kts | 298° |
| 2026-04-25 12:19 | 50.80389 | 9.36455 | 36114 ft | 411 kts | 297° |
| 2026-04-25 12:20 | 50.82913 | 9.28503 | 36116 ft | 411 kts | 297° |
| 2026-04-25 12:20 | 50.85464 | 9.20397 | 35958 ft | 412 kts | 297° |
| 2026-04-25 12:20 | 50.86745 | 9.16333 | 35712 ft | 412 kts | 297° |
| 2026-04-25 12:21 | 50.88019 | 9.12278 | 35456 ft | 412 kts | 297° |
| 2026-04-25 12:21 | 50.89253 | 9.08347 | 35188 ft | 412 kts | 297° |
| 2026-04-25 12:21 | 50.90518 | 9.04301 | 34542 ft | 411 kts | 297° |
| 2026-04-25 12:21 | 50.91791 | 9.00228 | 33761 ft | 413 kts | 297° |
| 2026-04-25 12:22 | 50.93068 | 8.96148 | 32907 ft | 415 kts | 298° |
| 2026-04-25 12:22 | 50.94354 | 8.92043 | 32107 ft | 415 kts | 298° |
| 2026-04-25 12:22 | 50.95641 | 8.87964 | 31493 ft | 412 kts | 298° |
| 2026-04-25 12:22 | 50.96925 | 8.83938 | 30885 ft | 408 kts | 298° |
| 2026-04-25 12:23 | 50.98212 | 8.79940 | 30302 ft | 405 kts | 299° |
| 2026-04-25 12:23 | 50.99449 | 8.75948 | 29654 ft | 403 kts | 295° |
| 2026-04-25 12:23 | 51.00353 | 8.71751 | 29014 ft | 402 kts | 287° |
| 2026-04-25 12:23 | 51.00845 | 8.67404 | 28399 ft | 402 kts | 278° |
| 2026-04-25 12:24 | 51.00801 | 8.62979 | 27801 ft | 404 kts | 264° |
| 2026-04-25 12:24 | 51.00019 | 8.58757 | 27216 ft | 406 kts | 251° |
| 2026-04-25 12:24 | 50.98946 | 8.54648 | 26427 ft | 400 kts | 251° |
| 2026-04-25 12:24 | 50.97872 | 8.50628 | 25448 ft | 396 kts | 250° |
| 2026-04-25 12:25 | 50.96790 | 8.46632 | 24555 ft | 394 kts | 250° |
| 2026-04-25 12:25 | 50.95708 | 8.42650 | 24025 ft | 392 kts | 250° |
| 2026-04-25 12:25 | 50.94632 | 8.38698 | 23480 ft | 389 kts | 250° |
| 2026-04-25 12:25 | 50.93633 | 8.35021 | 22940 ft | 386 kts | 250° |
| 2026-04-25 12:26 | 50.92621 | 8.31289 | 22432 ft | 383 kts | 250° |
| 2026-04-25 12:26 | 50.91573 | 8.27432 | 21930 ft | 379 kts | 250° |
| 2026-04-25 12:26 | 50.90531 | 8.23617 | 21435 ft | 376 kts | 250° |
| 2026-04-25 12:26 | 50.89498 | 8.19829 | 20938 ft | 372 kts | 250° |
| 2026-04-25 12:27 | 50.88524 | 8.16248 | 20499 ft | 369 kts | 250° |
| 2026-04-25 12:27 | 50.87623 | 8.12940 | 20093 ft | 366 kts | 250° |
| 2026-04-25 12:27 | 50.86618 | 8.09259 | 19649 ft | 363 kts | 250° |
| 2026-04-25 12:27 | 50.85615 | 8.05596 | 19197 ft | 360 kts | 249° |
| 2026-04-25 12:28 | 50.84625 | 8.01990 | 18624 ft | 354 kts | 249° |
| 2026-04-25 12:28 | 50.83657 | 7.98473 | 17742 ft | 350 kts | 249° |
| 2026-04-25 12:28 | 50.82685 | 7.94948 | 16881 ft | 347 kts | 249° |
| 2026-04-25 12:28 | 50.81722 | 7.91464 | 16231 ft | 345 kts | 249° |
| 2026-04-25 12:29 | 50.80827 | 7.88234 | 15639 ft | 343 kts | 249° |
| 2026-04-25 12:29 | 50.79870 | 7.84787 | 15026 ft | 340 kts | 249° |
| 2026-04-25 12:29 | 50.78943 | 7.81444 | 14440 ft | 337 kts | 249° |
| 2026-04-25 12:29 | 50.78010 | 7.78103 | 13837 ft | 335 kts | 249° |
| 2026-04-25 12:30 | 50.77076 | 7.74759 | 13162 ft | 331 kts | 249° |
| 2026-04-25 12:30 | 50.76148 | 7.71442 | 12517 ft | 326 kts | 249° |
| 2026-04-25 12:30 | 50.75244 | 7.68218 | 11902 ft | 317 kts | 249° |
| 2026-04-25 12:30 | 50.74497 | 7.65569 | 11361 ft | 310 kts | 249° |
| 2026-04-25 12:31 | 50.73660 | 7.62606 | 10771 ft | 304 kts | 249° |
| 2026-04-25 12:31 | 50.72808 | 7.59592 | 10177 ft | 298 kts | 249° |
| 2026-04-25 12:31 | 50.71969 | 7.56641 | 9532 ft | 292 kts | 248° |
| 2026-04-25 12:31 | 50.71148 | 7.53757 | 8885 ft | 287 kts | 249° |
| 2026-04-25 12:32 | 50.70439 | 7.51274 | 8645 ft | 271 kts | 248° |
| 2026-04-25 12:32 | 50.69674 | 7.48609 | 8178 ft | 263 kts | 249° |
| 2026-04-25 12:32 | 50.69101 | 7.45928 | 7565 ft | 256 kts | 268° |
| 2026-04-25 12:32 | 50.69206 | 7.43458 | 7034 ft | 251 kts | 281° |
| 2026-04-25 12:33 | 50.69558 | 7.40825 | 6747 ft | 235 kts | 290° |
| 2026-04-25 12:33 | 50.70273 | 7.38657 | 6604 ft | 214 kts | 309° |
| 2026-04-25 12:33 | 50.71297 | 7.37035 | 6220 ft | 208 kts | 317° |
| 2026-04-25 12:33 | 50.72379 | 7.35493 | 5627 ft | 213 kts | 317° |
| 2026-04-25 12:34 | 50.73497 | 7.33894 | 4895 ft | 222 kts | 317° |
| 2026-04-25 12:34 | 50.74664 | 7.32218 | 4206 ft | 226 kts | 318° |
| 2026-04-25 12:34 | 50.75798 | 7.30588 | 3794 ft | 220 kts | 318° |
| 2026-04-25 12:34 | 50.76179 | 7.30039 | 3557 ft | 222 kts | 318° |
| 2026-04-25 12:35 | 50.78033 | 7.27372 | 2473 ft | 229 kts | 317° |
| 2026-04-25 12:35 | 50.79187 | 7.25710 | 2088 ft | 220 kts | 317° |
| 2026-04-25 12:35 | 50.80293 | 7.24117 | 1767 ft | 211 kts | 317° |
| 2026-04-25 12:35 | 50.81355 | 7.22585 | 1484 ft | 202 kts | 317° |
| 2026-04-25 12:36 | 50.82343 | 7.21159 | 1212 ft | 183 kts | 317° |
| 2026-04-25 12:36 | 50.83200 | 7.19923 | 976 ft | 162 kts | 316° |
| 2026-04-25 12:36 | 50.83979 | 7.18799 | 747 ft | 144 kts | 316° |
| 2026-04-25 12:36 | 50.84650 | 7.17829 | 581 ft | 138 kts | 316° |
| 2026-04-25 12:37 | 50.85115 | 7.17156 | 466 ft | 135 kts | 316° |
| 2026-04-25 12:37 | 50.85804 | 7.16163 | 313 ft | 132 kts | 316° |
| 2026-04-25 12:37 | 50.86416 | 7.15265 | 283 ft | 98 kts | 317° |
| 2026-04-25 12:37 | 50.86836 | 7.14661 | 264 ft | 73 kts | 319° |
| 2026-04-25 12:38 | 50.87236 | 7.14066 | 245 ft | 45 kts | 310° |
| 2026-04-25 12:38 | 50.87307 | 7.13803 | 240 ft | 35 kts | 283° |
| 2026-04-25 12:38 | 50.87338 | 7.13532 | 234 ft | 18 kts | 279° |
| 2026-04-25 12:38 | 50.87341 | 7.13498 | 233 ft | 3 kts | 281° |
| 2026-04-25 12:39 | 50.87381 | 7.13422 | 232 ft | 11 kts | 317° |
| 2026-04-25 12:39 | 50.87441 | 7.13337 | 233 ft | 12 kts | 318° |
| 2026-04-25 12:39 | 50.87509 | 7.13241 | 233 ft | 14 kts | 318° |
| 2026-04-25 12:39 | 50.87590 | 7.13126 | 233 ft | 17 kts | 318° |
| 2026-04-25 12:40 | 50.87679 | 7.12988 | 233 ft | 19 kts | 316° |
| 2026-04-25 12:40 | 50.87773 | 7.12847 | 232 ft | 18 kts | 312° |
| 2026-04-25 12:40 | 50.87772 | 7.12665 | 232 ft | 13 kts | 259° |
| 2026-04-25 12:40 | 50.87782 | 7.12524 | 233 ft | 12 kts | 287° |
| 2026-04-25 12:41 | 50.87799 | 7.12440 | 232 ft | 7 kts | 288° |
| 2026-04-25 12:41 | 50.87807 | 7.12400 | 234 ft | 0 kts | 288° |